createdAt,value
2022-09-10T00:00:06.829Z,23.30
2022-09-10T00:02:34.175Z,23.30
2022-09-10T00:05:02.664Z,23.40
2022-09-10T00:07:30.083Z,23.30
2022-09-10T00:09:57.481Z,23.30
2022-09-10T00:12:24.383Z,23.30
2022-09-10T00:14:52.579Z,23.30
2022-09-10T00:17:19.951Z,23.30
2022-09-10T00:19:46.901Z,23.30
2022-09-10T00:22:14.296Z,23.20
2022-09-10T00:24:41.257Z,23.20
2022-09-10T00:27:09.317Z,23.20
2022-09-10T00:29:36.269Z,23.10
2022-09-10T00:32:04.486Z,23.10
2022-09-10T00:34:31.509Z,23.10
2022-09-10T00:36:59.653Z,23.10
2022-09-10T00:39:26.586Z,23.10
2022-09-10T00:41:54.564Z,23.00
2022-09-10T00:44:42.865Z,23.10
2022-09-10T00:47:20.053Z,23.10
2022-09-10T00:49:51.995Z,23.20
2022-09-10T00:52:18.986Z,23.10
2022-09-10T00:54:46.055Z,22.90
2022-09-10T00:57:14.564Z,22.90
2022-09-10T00:59:41.746Z,22.90
2022-09-10T01:02:10.021Z,22.90
2022-09-10T01:04:36.987Z,22.80
2022-09-10T01:07:04.010Z,22.80
2022-09-10T01:09:30.967Z,22.80
2022-09-10T01:12:08.264Z,22.80
2022-09-10T01:14:39.520Z,22.80
2022-09-10T01:17:12.599Z,22.80
2022-09-10T01:19:55.063Z,22.80
2022-09-10T01:22:35.091Z,22.70
2022-09-10T01:25:12.217Z,22.70
2022-09-10T01:27:48.914Z,22.60
2022-09-10T01:30:20.970Z,22.60
2022-09-10T01:32:59.566Z,22.70
2022-09-10T01:35:58.394Z,22.70
2022-09-10T01:38:28.498Z,22.70
2022-09-10T01:40:55.360Z,22.70
2022-09-10T01:43:23.224Z,22.60
2022-09-10T01:45:52.650Z,22.60
2022-09-10T01:48:52.123Z,22.60
2022-09-10T01:51:29.795Z,22.50
2022-09-10T01:54:06.413Z,22.50
2022-09-10T01:56:35.775Z,22.50
2022-09-10T01:59:13.004Z,22.40
2022-09-10T02:01:46.933Z,22.40
2022-09-10T02:04:15.060Z,22.30
2022-09-10T02:06:43.024Z,22.20
2022-09-10T02:09:09.895Z,22.30
2022-09-10T02:11:47.499Z,22.30
2022-09-10T02:14:14.914Z,22.30
2022-09-10T02:16:43.198Z,22.30
2022-09-10T02:19:10.956Z,22.30
2022-09-10T02:21:37.761Z,22.30
2022-09-10T02:24:06.034Z,22.30
2022-09-10T02:26:33.626Z,22.30
2022-09-10T02:29:01.961Z,22.30
2022-09-10T02:31:28.863Z,22.30
2022-09-10T02:33:56.661Z,22.30
2022-09-10T02:36:26.471Z,22.10
2022-09-10T02:38:53.785Z,22.00
2022-09-10T02:41:21.912Z,21.90
2022-09-10T02:43:48.931Z,21.90
2022-09-10T02:46:15.746Z,21.90
2022-09-10T02:48:42.582Z,22.00
2022-09-10T02:51:09.481Z,22.00
2022-09-10T02:53:36.321Z,22.00
2022-09-10T02:56:03.277Z,22.00
2022-09-10T02:58:31.475Z,22.00
2022-09-10T03:01:07.548Z,22.00
2022-09-10T03:03:34.882Z,22.00
2022-09-10T03:06:01.807Z,21.90
2022-09-10T03:08:28.766Z,21.90
2022-09-10T03:10:57.856Z,21.80
2022-09-10T03:13:24.822Z,21.60
2022-09-10T03:15:52.016Z,21.50
2022-09-10T03:18:19.843Z,21.50
2022-09-10T03:20:46.724Z,21.50
2022-09-10T03:23:13.515Z,21.60
2022-09-10T03:25:40.634Z,21.60
2022-09-10T03:28:07.703Z,21.50
2022-09-10T03:30:37.736Z,21.60
2022-09-10T03:33:04.585Z,21.60
2022-09-10T03:35:31.420Z,21.80
2022-09-10T03:37:58.363Z,21.80
2022-09-10T03:40:25.398Z,21.90
2022-09-10T03:42:52.218Z,21.90
2022-09-10T03:45:19.066Z,21.80
2022-09-10T03:47:45.936Z,21.80
2022-09-10T03:50:12.778Z,21.80
2022-09-10T03:52:39.677Z,21.90
2022-09-10T03:55:06.865Z,21.90
2022-09-10T03:57:33.653Z,21.90
2022-09-10T04:00:00.482Z,22.00
2022-09-10T04:02:27.331Z,22.00
2022-09-10T04:04:54.360Z,22.00
2022-09-10T04:07:21.482Z,22.00
2022-09-10T04:09:48.310Z,22.00
2022-09-10T04:12:15.590Z,21.90
2022-09-10T04:14:45.466Z,21.90
2022-09-10T04:17:12.890Z,21.90
2022-09-10T04:19:40.564Z,21.60
2022-09-10T04:22:07.530Z,21.60
2022-09-10T04:24:34.439Z,21.60
2022-09-10T04:27:01.838Z,21.60
2022-09-10T04:29:28.909Z,21.80
2022-09-10T04:31:55.896Z,21.90
2022-09-10T04:34:22.951Z,21.90
2022-09-10T04:36:53.815Z,22.00
2022-09-10T04:39:20.710Z,21.90
2022-09-10T04:41:48.176Z,21.90
2022-09-10T04:44:15.029Z,21.90
2022-09-10T04:46:42.620Z,21.90
2022-09-10T04:49:10.055Z,21.90
2022-09-10T04:51:37.058Z,21.80
2022-09-10T04:54:03.992Z,21.90
2022-09-10T04:56:31.173Z,21.90
2022-09-10T04:58:58.710Z,21.80
2022-09-10T05:01:25.757Z,21.80
2022-09-10T05:03:52.751Z,21.90
2022-09-10T05:06:20.518Z,21.90
2022-09-10T05:08:47.465Z,21.90
2022-09-10T05:11:14.318Z,21.90
2022-09-10T05:13:41.852Z,21.90
2022-09-10T05:16:08.989Z,22.00
2022-09-10T05:18:35.959Z,22.00
2022-09-10T05:21:02.994Z,22.00
2022-09-10T05:23:29.895Z,22.00
2022-09-10T05:25:57.175Z,22.00
2022-09-10T05:28:24.857Z,22.00
2022-09-10T05:30:52.079Z,21.90
2022-09-10T05:33:19.094Z,21.60
2022-09-10T05:35:48.263Z,21.60
2022-09-10T05:38:15.406Z,21.70
2022-09-10T05:40:42.434Z,21.60
2022-09-10T05:43:10.439Z,21.70
2022-09-10T05:45:37.577Z,21.70
2022-09-10T05:48:07.699Z,21.80
2022-09-10T05:50:34.710Z,21.90
2022-09-10T05:53:01.837Z,21.90
2022-09-10T05:55:31.481Z,21.90
2022-09-10T05:57:59.160Z,21.80
2022-09-10T06:00:26.403Z,21.80
2022-09-10T06:02:53.536Z,21.90
2022-09-10T06:05:23.039Z,22.00
2022-09-10T06:07:50.399Z,22.10
2022-09-10T06:10:17.417Z,22.20
2022-09-10T06:12:47.341Z,22.40
2022-09-10T06:15:14.442Z,22.50
2022-09-10T06:17:41.477Z,22.60
2022-09-10T06:20:09.657Z,22.70
2022-09-10T06:22:36.684Z,22.70
2022-09-10T06:25:10.924Z,22.70
2022-09-10T06:27:38.416Z,22.70
2022-09-10T06:30:05.593Z,22.80
2022-09-10T06:32:32.502Z,22.90
2022-09-10T06:34:59.561Z,23.00
2022-09-10T06:37:27.153Z,22.90
2022-09-10T06:39:56.494Z,23.00
2022-09-10T06:42:24.083Z,23.20
2022-09-10T06:44:52.303Z,23.30
2022-09-10T06:47:55.832Z,23.40
2022-09-10T06:50:09.880Z,23.50
2022-09-10T06:52:37.899Z,23.70
2022-09-10T06:55:05.930Z,23.80
2022-09-10T06:57:32.987Z,24.00
2022-09-10T07:00:00.142Z,24.10
2022-09-10T07:02:27.210Z,24.20
2022-09-10T07:04:54.345Z,24.20
2022-09-10T07:07:24.362Z,24.40
2022-09-10T07:09:51.239Z,24.50
2022-09-10T07:12:21.670Z,24.80
2022-09-10T07:14:53.883Z,25.20
2022-09-10T07:17:21.265Z,25.40
2022-09-10T07:19:49.063Z,25.60
2022-09-10T07:22:16.269Z,25.80
2022-09-10T07:24:43.309Z,26.30
2022-09-10T07:27:11.364Z,26.50
2022-09-10T07:29:38.746Z,26.60
2022-09-10T07:32:06.000Z,26.90
2022-09-10T07:34:33.364Z,27.20
2022-09-10T07:37:00.469Z,27.60
2022-09-10T07:39:31.639Z,28.00
2022-09-10T07:42:00.459Z,28.40
2022-09-10T07:44:27.446Z,28.80
2022-09-10T07:46:54.639Z,29.20
2022-09-10T07:49:22.971Z,29.70
2022-09-10T07:51:57.662Z,30.10
2022-09-10T07:54:28.715Z,30.50
2022-09-10T07:56:56.236Z,30.80
2022-09-10T07:59:23.266Z,31.20
2022-09-10T08:01:50.970Z,31.50
2022-09-10T08:04:19.614Z,32.00
2022-09-10T08:06:46.930Z,32.40
2022-09-10T08:09:15.091Z,32.70
2022-09-10T08:11:42.250Z,32.90
2022-09-10T08:14:09.648Z,33.10
2022-09-10T08:16:39.287Z,33.60
2022-09-10T08:19:09.904Z,33.80
2022-09-10T08:21:37.291Z,34.00
2022-09-10T08:24:06.579Z,34.60
2022-09-10T08:26:35.373Z,35.10
2022-09-10T08:29:03.077Z,35.10
2022-09-10T08:31:31.532Z,35.10
2022-09-10T08:33:58.602Z,35.30
2022-09-10T08:36:26.467Z,35.50
2022-09-10T08:38:59.531Z,35.70
2022-09-10T08:41:33.999Z,35.40
2022-09-10T08:44:05.034Z,34.40
2022-09-10T08:46:42.790Z,33.30
2022-09-10T08:49:20.715Z,33.00
2022-09-10T08:51:57.057Z,33.20
2022-09-10T08:54:25.620Z,34.70
2022-09-10T08:56:53.734Z,36.40
2022-09-10T08:59:22.528Z,37.20
2022-09-10T09:01:51.115Z,37.10
2022-09-10T09:04:19.802Z,36.50
2022-09-10T09:06:55.616Z,36.90
2022-09-10T09:09:22.594Z,37.50
2022-09-10T09:11:55.515Z,38.30
2022-09-10T09:14:36.326Z,39.20
2022-09-10T09:17:12.385Z,39.90
2022-09-10T09:20:00.240Z,40.20
2022-09-10T09:22:30.104Z,40.40
2022-09-10T09:25:03.291Z,40.50
2022-09-10T09:27:32.190Z,40.90
2022-09-10T09:30:00.502Z,41.50
2022-09-10T09:32:27.434Z,42.20
2022-09-10T09:34:57.695Z,42.90
2022-09-10T09:37:31.566Z,42.80
2022-09-10T09:40:27.794Z,41.00
2022-09-10T09:42:58.753Z,38.70
2022-09-10T09:45:28.487Z,36.80
2022-09-10T09:47:56.430Z,36.00
2022-09-10T09:50:23.697Z,35.00
2022-09-10T09:52:55.021Z,34.30
2022-09-10T09:55:30.207Z,35.40
2022-09-10T09:58:38.270Z,37.60
2022-09-10T10:01:17.355Z,39.90
2022-09-10T10:03:52.626Z,40.60
2022-09-10T10:06:22.292Z,39.60
2022-09-10T10:08:58.251Z,38.50
2022-09-10T10:11:46.011Z,37.20
2022-09-10T10:14:23.494Z,37.10
2022-09-10T10:16:59.943Z,38.10
2022-09-10T10:38:41.309Z,46.40
2022-09-10T10:41:30.153Z,45.70
2022-09-10T10:44:06.695Z,43.70
2022-09-10T10:46:40.023Z,41.00
2022-09-10T10:49:21.512Z,39.10
2022-09-10T11:44:41.042Z,44.20
2022-09-10T11:47:14.639Z,45.40
2022-09-10T12:09:50.268Z,38.80
2022-09-10T12:12:17.836Z,37.40
2022-09-10T12:14:45.345Z,36.20
2022-09-10T12:19:48.875Z,35.10
2022-09-10T12:22:25.137Z,36.80
2022-09-10T12:25:01.516Z,38.60
2022-09-10T12:27:53.115Z,38.70
2022-09-10T12:30:29.799Z,37.80
2022-09-10T12:35:38.417Z,39.00
2022-09-10T12:38:24.463Z,40.80
2022-09-10T12:40:57.557Z,42.30
2022-09-10T12:43:44.665Z,43.30
2022-09-10T12:46:14.650Z,44.00
2022-09-10T12:48:43.796Z,44.50
2022-09-10T12:51:14.679Z,44.40
2022-09-10T12:53:44.955Z,42.70
2022-09-10T12:56:24.693Z,40.70
2022-09-10T12:59:02.058Z,39.10
2022-09-10T13:01:31.996Z,38.00
2022-09-10T13:04:02.828Z,37.10
2022-09-10T13:06:45.512Z,36.40
2022-09-10T13:09:17.410Z,36.70
2022-09-10T13:19:45.917Z,37.60
2022-09-10T13:22:32.918Z,38.80
2022-09-10T13:25:05.644Z,38.90
2022-09-10T14:26:41.755Z,32.20
2022-09-10T14:32:55.654Z,31.60
2022-09-10T14:35:39.468Z,31.40
2022-09-10T14:38:25.916Z,31.30
2022-09-10T14:40:58.746Z,31.20
2022-09-10T14:43:33.986Z,31.10
2022-09-10T14:46:02.863Z,31.00
2022-09-10T14:48:35.052Z,31.00
2022-09-10T14:51:12.033Z,30.90
2022-09-10T14:53:40.186Z,30.90
2022-09-10T16:03:31.265Z,27.30
2022-09-10T19:29:08.335Z,24.30
2022-09-10T19:31:38.755Z,24.30
2022-09-10T19:34:06.936Z,24.30
2022-09-10T19:36:35.834Z,24.30
2022-09-10T19:39:07.016Z,24.30
2022-09-10T19:41:39.425Z,24.30
2022-09-10T19:44:06.986Z,24.20
2022-09-10T19:46:36.587Z,24.00
2022-09-10T19:49:04.267Z,23.90
2022-09-10T19:51:35.165Z,24.00
2022-09-10T19:54:02.444Z,24.00
2022-09-10T19:56:33.901Z,24.00
2022-09-10T19:59:04.741Z,24.10
2022-09-10T20:01:32.538Z,24.10
2022-09-10T20:04:07.806Z,24.20
2022-09-10T20:06:35.626Z,24.10
2022-09-10T20:09:05.919Z,23.80
2022-09-10T20:11:33.335Z,23.80
2022-09-10T20:14:01.720Z,23.80
2022-09-10T20:16:28.883Z,23.80
2022-09-10T20:18:55.958Z,23.80
2022-09-10T20:21:23.998Z,23.70
2022-09-10T20:23:51.664Z,23.80
2022-09-10T20:26:23.001Z,23.70
2022-09-10T20:28:50.955Z,23.60
2022-09-10T20:34:04.286Z,23.50
2022-09-10T20:36:34.528Z,23.50
2022-09-10T20:39:01.469Z,23.50
2022-09-10T20:41:30.652Z,23.50
2022-09-10T20:46:43.523Z,23.30
2022-09-10T20:49:11.198Z,23.10
2022-09-10T20:51:38.991Z,23.10
2022-09-10T20:54:06.953Z,23.10
2022-09-10T20:56:34.347Z,23.20
2022-09-10T20:59:02.179Z,23.20
2022-09-10T21:01:31.386Z,23.20
2022-09-10T21:03:59.626Z,23.30
2022-09-10T21:06:31.876Z,23.30
2022-09-10T21:08:59.398Z,23.30
2022-09-10T21:11:27.535Z,23.30
2022-09-10T21:13:54.997Z,23.30
2022-09-10T21:16:25.987Z,23.30
2022-09-10T21:18:54.971Z,23.10
2022-09-10T21:21:28.728Z,23.00
2022-09-10T21:23:58.589Z,22.80
2022-09-10T21:26:27.012Z,22.70
2022-09-10T21:31:42.014Z,22.70
2022-09-10T21:34:09.403Z,22.60
2022-09-10T21:36:39.826Z,22.70
2022-09-10T21:44:27.749Z,22.60
2022-09-10T21:46:55.204Z,22.60
2022-09-10T21:49:22.415Z,22.70
2022-09-10T21:51:49.945Z,22.70
2022-09-10T21:54:21.110Z,22.60
2022-09-10T21:56:48.712Z,22.70
2022-09-10T21:59:17.433Z,22.60
2022-09-10T22:01:45.330Z,22.70
2022-09-10T22:04:16.919Z,22.60
2022-09-10T22:06:50.570Z,22.60
2022-09-10T22:09:21.618Z,22.60
2022-09-10T22:11:52.473Z,22.60
2022-09-10T22:14:23.042Z,22.50
2022-09-10T22:16:54.216Z,22.40
2022-09-10T22:19:22.791Z,22.40
2022-09-10T22:21:54.398Z,22.30
2022-09-10T22:24:27.050Z,22.20
2022-09-10T22:32:15.968Z,22.20
2022-09-10T22:34:44.028Z,22.20
2022-09-10T22:37:11.548Z,22.10
2022-09-10T22:39:38.552Z,22.10
2022-09-10T22:42:05.835Z,22.00
2022-09-10T22:44:32.927Z,21.90
2022-09-10T22:47:00.089Z,21.80
2022-09-10T22:49:27.428Z,21.70
2022-09-10T22:51:54.918Z,21.60
2022-09-10T22:54:22.026Z,21.60
2022-09-10T22:56:49.060Z,21.60
2022-09-10T22:59:16.177Z,21.50
2022-09-10T23:01:46.192Z,21.30
2022-09-10T23:04:13.616Z,21.10
2022-09-10T23:06:40.641Z,21.00
2022-09-10T23:09:10.923Z,20.90
2022-09-10T23:11:38.715Z,20.90
2022-09-10T23:14:06.858Z,20.90
2022-09-10T23:16:34.888Z,21.00
2022-09-10T23:19:04.046Z,21.10
2022-09-10T23:21:31.498Z,21.20
2022-09-10T23:23:59.771Z,21.30
2022-09-10T23:26:26.868Z,21.20
2022-09-10T23:28:54.975Z,21.30
2022-09-10T23:31:25.530Z,21.30
2022-09-10T23:34:05.618Z,21.30
2022-09-10T23:36:33.907Z,21.30
2022-09-10T23:39:01.452Z,21.30
2022-09-10T23:41:29.949Z,21.30
2022-09-10T23:43:57.437Z,21.30
2022-09-10T23:46:24.637Z,21.30
2022-09-10T23:48:51.832Z,21.20
2022-09-10T23:51:19.902Z,21.30
2022-09-10T23:53:47.111Z,21.20
2022-09-10T23:56:14.365Z,21.20
2022-09-10T23:58:41.331Z,21.30
